Time;durP1;ratioP1;P1;durP2;ratioP2;P2;SDS_P1;SDS_P2;PMS_P1;PMS_P2;Temp;Humidity;BMP_temperature;BMP_pressure;BME280_temperature;BME280_humidity;BME280_pressure;Samples;Min_cycle;Max_cycle;Signal;HPM_P1;HPM_P2
2023/10/15 00:00:22;;;;;;;9.73;4.30;;;;;;;10.86;62.99;101723.56;5098586;28;20402;-66
2023/10/15 00:02:49;;;;;;;10.35;3.97;;;;;;;10.96;63.05;101720.22;5090621;28;20387;-67
2023/10/15 00:05:19;;;;;;;8.52;4.03;;;;;;;10.93;62.91;101724.34;5090589;28;20478;-66
2023/10/15 00:07:47;;;;;;;8.82;3.75;;;;;;;10.91;63.24;101718.16;5099221;28;20436;-67
2023/10/15 00:10:19;;;;;;;11.40;3.70;;;;;;;10.94;63.31;101736.28;5093904;28;20444;-67
2023/10/15 00:12:50;;;;;;;8.95;4.00;;;;;;;10.88;63.33;101751.94;5088463;28;20024;-67
2023/10/15 00:15:23;;;;;;;7.40;3.65;;;;;;;10.89;63.18;101761.16;5100756;28;20028;-67
2023/10/15 00:17:51;;;;;;;7.40;3.90;;;;;;;10.89;63.35;101764.75;5101363;28;20027;-66
2023/10/15 00:20:19;;;;;;;11.45;4.03;;;;;;;10.87;63.39;101747.47;5098694;28;20089;-67
2023/10/15 00:22:45;;;;;;;7.70;3.78;;;;;;;10.87;63.12;101755.81;5103117;28;20024;-67
2023/10/15 00:25:15;;;;;;;7.65;4.18;;;;;;;10.90;63.24;101758.13;5064552;28;1040414;-67
2023/10/15 00:27:41;;;;;;;9.80;4.00;;;;;;;10.91;63.41;101756.19;5098173;28;20032;-67
2023/10/15 00:30:12;;;;;;;7.68;3.80;;;;;;;10.94;63.31;101758.50;5090643;28;20067;-66
2023/10/15 00:32:39;;;;;;;5.68;3.50;;;;;;;10.98;63.39;101756.97;5108577;28;20027;-67
2023/10/15 00:35:04;;;;;;;7.40;4.05;;;;;;;10.95;63.42;101749.94;5096476;28;20108;-67
2023/10/15 00:37:29;;;;;;;10.98;4.40;;;;;;;10.93;63.55;101743.78;5101643;28;20066;-66
2023/10/15 00:39:58;;;;;;;9.57;4.03;;;;;;;11.03;63.25;101751.53;5090719;28;20730;-66
2023/10/15 00:42:24;;;;;;;9.00;4.10;;;;;;;10.95;62.81;101746.31;5094176;28;20478;-67
2023/10/15 00:44:50;;;;;;;6.60;3.28;;;;;;;10.98;62.48;101748.63;5097862;28;20024;-67
2023/10/15 00:47:16;;;;;;;7.70;3.08;;;;;;;10.98;62.78;101738.34;5090283;28;20020;-66
2023/10/15 00:49:43;;;;;;;8.02;3.63;;;;;;;10.98;63.42;101731.97;5102820;28;20019;-66
2023/10/15 00:52:10;;;;;;;8.18;3.05;;;;;;;11.02;63.76;101730.41;5101455;28;20038;-66
2023/10/15 00:54:39;;;;;;;10.18;3.55;;;;;;;11.01;64.08;101732.34;5098313;28;20033;-67
2023/10/15 00:57:26;;;;;;;7.18;3.28;;;;;;;11.05;64.28;101739.13;5101911;28;20153;-66
2023/10/15 00:59:54;;;;;;;9.48;3.15;;;;;;;11.06;64.03;101751.06;5098189;28;20036;-66
2023/10/15 01:02:23;;;;;;;7.68;3.00;;;;;;;11.08;64.26;101726.66;5102635;28;20024;-66
2023/10/15 01:04:51;;;;;;;4.30;2.45;;;;;;;11.11;64.14;101717.03;5097989;28;20119;-66
2023/10/15 01:07:34;;;;;;;6.10;2.30;;;;;;;11.01;64.46;101726.78;5091021;28;20024;-66
2023/10/15 01:10:00;;;;;;;5.65;2.90;;;;;;;11.04;64.59;101728.22;5107582;28;20032;-66
2023/10/15 01:12:31;;;;;;;7.28;2.70;;;;;;;11.00;64.95;101730.66;5096315;28;20430;-67
2023/10/15 01:14:57;;;;;;;6.20;2.97;;;;;;;11.04;64.86;101731.00;5097944;28;20039;-67
2023/10/15 01:17:36;;;;;;;9.32;2.92;;;;;;;10.97;65.33;101722.78;5099802;28;20054;-67
2023/10/15 01:20:09;;;;;;;6.35;2.88;;;;;;;10.91;65.14;101709.81;5096199;28;20052;-66
2023/10/15 01:22:39;;;;;;;7.25;3.58;;;;;;;10.88;65.36;101710.28;5092935;28;20531;-67
2023/10/15 01:25:18;;;;;;;6.38;3.20;;;;;;;10.91;65.49;101709.81;5097773;28;20495;-66
2023/10/15 01:27:44;;;;;;;9.88;3.70;;;;;;;10.89;65.49;101712.00;5093959;28;20024;-66
2023/10/15 01:30:17;;;;;;;6.00;3.30;;;;;;;10.90;65.56;101704.50;5100589;28;20088;-67
2023/10/15 01:32:44;;;;;;;;;;;;;;;11.11;64.72;101706.75;5105123;28;20020;-67
2023/10/15 01:35:14;;;;;;;7.15;3.58;;;;;;;10.86;64.88;101717.16;5094271;28;19927;-67
2023/10/15 01:37:45;;;;;;;8.57;3.67;;;;;;;10.82;65.52;101712.06;5099980;28;20036;-67
2023/10/15 01:42:42;;;;;;;9.38;3.92;;;;;;;10.77;65.10;101714.72;5101746;28;20088;-67
2023/10/15 01:50:23;;;;;;;11.77;3.80;;;;;;;10.77;65.76;101736.94;5094855;28;20038;-66
2023/10/15 01:52:49;;;;;;;7.22;3.63;;;;;;;10.82;65.68;101739.00;5109537;28;20035;-67
2023/10/15 01:55:17;;;;;;;7.45;4.10;;;;;;;10.85;65.97;101743.25;5093205;28;20032;-67
2023/10/15 01:57:43;;;;;;;5.65;3.63;;;;;;;10.79;66.42;101731.97;5094348;28;20357;-67
2023/10/15 02:00:32;;;;;;;7.70;3.55;;;;;;;10.81;66.36;101726.22;5101467;28;20043;-66
2023/10/15 02:02:58;;;;;;;7.50;3.75;;;;;;;10.86;66.41;101718.00;5095791;28;20090;-67
2023/10/15 02:05:30;;;;;;;5.97;3.40;;;;;;;10.80;66.25;101718.94;5102364;28;20491;-68
2023/10/15 02:07:56;;;;;;;8.82;3.80;;;;;;;10.74;66.82;101719.88;5101700;28;20111;-67
2023/10/15 02:10:22;;;;;;;9.88;3.95;;;;;;;10.71;66.70;101717.56;5101537;28;20485;-67
2023/10/15 02:12:59;;;;;;;7.95;3.45;;;;;;;10.66;66.24;101709.94;5105597;28;20108;-68
2023/10/15 02:15:24;;;;;;;7.53;3.42;;;;;;;10.70;66.27;101713.09;5101296;28;20041;-67
2023/10/15 02:17:52;;;;;;;5.70;3.50;;;;;;;10.67;65.85;101708.00;5100152;28;20028;-68
2023/10/15 02:20:40;;;;;;;6.25;4.03;;;;;;;10.63;65.90;101706.78;5106628;28;20027;-68
2023/10/15 02:23:03;;;;;;;7.38;3.53;;;;;;;10.65;65.86;101712.94;5106197;28;20032;-68
2023/10/15 02:25:36;;;;;;;7.10;3.72;;;;;;;10.56;66.02;101699.38;5098114;28;20061;-68
2023/10/15 02:28:01;;;;;;;8.95;3.53;;;;;;;10.57;66.08;101701.09;5108449;28;20051;-68
2023/10/15 02:30:32;;;;;;;6.43;3.40;;;;;;;10.60;65.99;101704.47;5096215;28;20055;-67
2023/10/15 02:33:00;;;;;;;6.45;3.35;;;;;;;10.59;65.54;101703.63;5101815;28;20118;-68
2023/10/15 02:35:31;;;;;;;6.35;3.50;;;;;;;10.58;65.84;101701.94;5105173;28;20081;-68
2023/10/15 02:37:59;;;;;;;7.68;3.88;;;;;;;10.60;65.63;101704.47;5098444;28;20023;-68
2023/10/15 02:40:35;;;;;;;7.40;3.40;;;;;;;10.53;65.46;101697.09;5102207;28;20027;-68
2023/10/15 02:43:06;;;;;;;7.20;3.65;;;;;;;10.50;65.71;101697.53;5104707;28;21470;-68
2023/10/15 02:45:35;;;;;;;7.63;3.60;;;;;;;10.52;65.61;101695.34;5092207;28;20472;-68
2023/10/15 02:48:09;;;;;;;9.55;3.90;;;;;;;10.53;65.86;101701.75;5097290;28;20028;-68
2023/10/15 02:50:35;;;;;;;8.40;3.83;;;;;;;10.54;66.22;101698.78;5097047;28;20031;-68
2023/10/15 02:53:04;;;;;;;8.52;3.72;;;;;;;10.48;66.14;101702.47;5101556;28;20027;-68
2023/10/15 02:55:36;;;;;;;7.55;3.85;;;;;;;10.49;66.00;101700.53;5105520;28;20019;-69
2023/10/15 02:58:02;;;;;;;6.68;3.53;;;;;;;10.50;66.38;101758.59;5104073;28;20561;-67
2023/10/15 03:00:28;;;;;;;11.23;3.90;;;;;;;10.43;66.87;101757.81;5099088;28;20454;-67
2023/10/15 03:02:57;;;;;;;5.30;3.45;;;;;;;10.49;67.07;101759.69;5095538;28;20052;-67
2023/10/15 03:05:38;;;;;;;7.60;3.33;;;;;;;10.49;66.64;101750.50;5101202;28;20061;-66
2023/10/15 03:08:06;;;;;;;5.80;3.30;;;;;;;10.54;66.56;101734.00;5095097;28;20542;-68
2023/10/15 03:10:56;;;;;;;8.27;3.30;;;;;;;10.54;66.39;101751.50;5094457;28;20762;-68
2023/10/15 03:13:21;;;;;;;7.55;3.45;;;;;;;10.54;66.45;101757.06;5105097;28;20031;-67
2023/10/15 03:15:49;;;;;;;6.95;3.58;;;;;;;10.65;66.68;101768.47;5098513;28;20035;-67
2023/10/15 03:18:21;;;;;;;8.18;3.33;;;;;;;10.60;66.80;101763.59;5097899;28;20024;-68
2023/10/15 03:20:49;;;;;;;5.72;3.03;;;;;;;10.63;66.98;101756.75;5093613;28;20069;-68
2023/10/15 03:23:17;;;;;;;5.57;2.75;;;;;;;10.65;66.85;101771.22;5096704;28;20111;-69
2023/10/15 03:25:43;;;;;;;6.22;2.78;;;;;;;10.65;67.02;101783.22;5106915;28;20085;-68
2023/10/15 03:28:11;;;;;;;5.25;2.50;;;;;;;10.65;67.09;101776.78;5106997;28;20415;-69
2023/10/15 03:30:44;;;;;;;4.57;2.35;;;;;;;10.67;67.29;101764.38;5097637;28;20130;-67
2023/10/15 03:33:11;;;;;;;6.50;2.80;;;;;;;10.66;67.80;101776.56;5100345;28;20035;-67
2023/10/15 03:35:45;;;;;;;7.18;2.30;;;;;;;10.67;68.06;101775.50;5096395;28;20028;-68
2023/10/15 03:38:14;;;;;;;4.30;2.03;;;;;;;10.68;67.99;101765.22;5091010;28;20020;-68
2023/10/15 03:40:46;;;;;;;4.63;2.20;;;;;;;10.62;68.48;101764.25;5091048;28;20023;-67
2023/10/15 03:43:15;;;;;;;4.20;2.17;;;;;;;10.59;68.66;101769.41;5099840;28;20042;-67
2023/10/15 03:45:52;;;;;;;3.53;1.75;;;;;;;10.59;68.54;101767.47;5103177;28;20157;-67
2023/10/15 03:48:29;;;;;;;2.42;1.70;;;;;;;10.64;68.29;101764.00;5093976;28;20052;-67
2023/10/15 03:50:58;;;;;;;2.95;1.73;;;;;;;10.58;67.99;101760.22;5091556;28;20135;-68
2023/10/15 03:53:28;;;;;;;5.45;1.65;;;;;;;10.52;68.23;101769.47;5104147;28;20028;-68
2023/10/15 03:56:04;;;;;;;6.25;1.63;;;;;;;10.50;68.32;101772.47;5101838;28;20032;-68
2023/10/15 03:58:31;;;;;;;3.88;1.60;;;;;;;10.43;68.21;101777.25;5107360;28;20103;-68
2023/10/15 04:01:12;;;;;;;3.88;1.73;;;;;;;10.46;69.24;101787.91;5104023;28;20114;-68
2023/10/15 04:03:42;;;;;;;5.20;1.90;;;;;;;10.45;68.62;101788.13;5094492;28;20165;-68
2023/10/15 04:06:09;;;;;;;4.13;1.70;;;;;;;10.46;69.11;101798.16;5099587;28;20061;-67
2023/10/15 04:08:37;;;;;;;4.97;1.95;;;;;;;10.45;68.84;101799.22;5104071;28;20031;-68
2023/10/15 04:11:02;;;;;;;3.85;2.00;;;;;;;10.46;69.04;101804.56;5092854;28;20032;-68
2023/10/15 04:13:28;;;;;;;2.95;1.77;;;;;;;10.44;69.43;101797.53;5090862;28;20067;-68
2023/10/15 04:15:55;;;;;;;4.03;1.80;;;;;;;10.40;69.79;101807.38;5091838;28;20030;-68
2023/10/15 04:18:23;;;;;;;6.00;1.85;;;;;;;10.40;69.97;101801.84;5100381;28;20024;-67
2023/10/15 04:20:53;;;;;;;5.80;2.08;;;;;;;10.38;70.27;101809.56;5101871;28;20032;-68
2023/10/15 04:23:31;;;;;;;3.35;1.90;;;;;;;10.40;69.93;101808.22;5097050;28;20043;-68
2023/10/15 04:26:07;;;;;;;4.57;1.85;;;;;;;10.44;69.93;101815.03;5091254;28;20079;-67
2023/10/15 04:28:34;;;;;;;4.90;2.13;;;;;;;10.41;70.54;101787.72;5090495;28;20164;-67
2023/10/15 04:31:00;;;;;;;4.97;2.08;;;;;;;10.35;70.89;101774.78;5094491;28;20028;-67
2023/10/15 04:33:28;;;;;;;6.43;2.10;;;;;;;10.34;70.94;101770.31;5111697;28;20032;-67
2023/10/15 04:35:56;;;;;;;4.60;2.38;;;;;;;10.29;70.89;101776.53;5098899;28;20475;-67
2023/10/15 04:38:22;;;;;;;3.47;1.90;;;;;;;10.24;70.77;101772.72;5091453;28;20027;-67
2023/10/15 04:43:25;;;;;;;5.47;2.00;;;;;;;10.31;69.88;101782.72;5091395;28;20036;-67
2023/10/15 04:45:51;;;;;;;4.90;1.98;;;;;;;10.29;69.74;101778.44;5096631;28;20071;-67
2023/10/15 04:48:26;;;;;;;5.38;2.08;;;;;;;10.31;69.91;101782.72;5102259;28;20113;-67
2023/10/15 04:50:51;;;;;;;3.85;2.25;;;;;;;10.33;69.87;101768.59;5108969;28;20031;-67
2023/10/15 04:55:48;;;;;;;3.88;2.53;;;;;;;10.30;70.28;101742.16;5103555;28;20038;-68
2023/10/15 04:58:15;;;;;;;3.90;2.35;;;;;;;10.31;70.52;101735.53;5095806;28;20101;-67
2023/10/15 05:00:46;;;;;;;4.82;2.40;;;;;;;10.28;70.11;101737.91;5094133;28;20051;-67
2023/10/15 05:03:12;;;;;;;;;;;;;;;10.52;69.35;101733.38;5102642;28;20039;-67
2023/10/15 05:05:38;;;;;;;4.13;2.13;;;;;;;10.36;69.61;101739.53;5097850;28;19915;-67
2023/10/15 05:08:10;;;;;;;4.13;1.70;;;;;;;10.35;70.04;101746.19;5111364;28;20475;-67
2023/10/15 05:10:38;;;;;;;4.03;1.80;;;;;;;10.29;70.13;101743.22;5104698;28;20032;-67
2023/10/15 05:13:03;;;;;;;4.30;1.83;;;;;;;10.35;69.62;101740.63;5096014;28;20051;-67
2023/10/15 05:15:28;;;;;;;5.85;1.83;;;;;;;10.36;69.29;101747.88;5105729;28;20483;-67
2023/10/15 05:17:54;;;;;;;3.60;1.30;;;;;;;10.31;69.20;101754.97;5100442;28;20070;-67
2023/10/15 05:20:20;;;;;;;2.63;1.38;;;;;;;10.34;69.46;101747.28;5110202;28;20475;-67
2023/10/15 05:22:46;;;;;;;5.03;1.42;;;;;;;10.37;69.35;101764.28;5100419;28;20016;-67
2023/10/15 05:25:18;;;;;;;4.13;1.35;;;;;;;10.33;69.47;101771.38;5102210;28;20498;-67
2023/10/15 05:27:44;;;;;;;4.38;1.65;;;;;;;10.42;69.53;101805.25;5102011;28;20050;-67
2023/10/15 05:30:15;;;;;;;2.42;1.50;;;;;;;10.34;69.28;101803.63;5107843;28;20977;-67
2023/10/15 05:32:44;;;;;;;3.13;1.45;;;;;;;10.31;69.65;101810.47;5098375;28;20028;-67
2023/10/15 05:35:10;;;;;;;4.32;1.60;;;;;;;10.32;69.75;101822.41;5102976;28;20133;-67
2023/10/15 05:37:36;;;;;;;7.18;1.75;;;;;;;10.31;69.16;101820.72;5098672;28;20020;-68
2023/10/15 05:40:07;;;;;;;4.97;1.60;;;;;;;10.33;68.77;101829.63;5099791;28;20051;-68
2023/10/15 05:42:33;;;;;;;5.82;1.67;;;;;;;10.39;68.69;101841.78;5103808;28;20023;-67
2023/10/15 05:44:58;;;;;;;4.60;1.40;;;;;;;10.31;68.63;101835.44;5097835;28;20042;-67
2023/10/15 05:47:23;;;;;;;3.08;1.02;;;;;;;10.22;68.17;101841.47;5102296;28;20494;-67
2023/10/15 05:49:49;;;;;;;2.17;0.98;;;;;;;10.16;67.78;101831.28;5096785;28;20024;-67
2023/10/15 05:52:15;;;;;;;6.38;1.10;;;;;;;10.16;68.02;101832.13;5094878;28;20366;-67
2023/10/15 05:54:40;;;;;;;1.73;0.95;;;;;;;10.11;68.30;101815.31;5103761;28;20126;-67
2023/10/15 05:57:06;;;;;;;1.85;1.00;;;;;;;10.12;68.46;101805.91;5096564;28;20502;-63
2023/10/15 05:59:34;;;;;;;1.90;0.90;;;;;;;10.09;68.68;101806.34;5101712;28;20043;-67
2023/10/15 06:02:00;;;;;;;1.83;0.80;;;;;;;10.03;68.51;101810.06;5099368;28;20028;-68
2023/10/15 06:04:26;;;;;;;2.60;0.90;;;;;;;9.95;68.85;101805.63;5098483;28;20038;-67
2023/10/15 06:06:51;;;;;;;3.08;1.02;;;;;;;9.93;69.13;101827.19;5098214;28;20104;-67
2023/10/15 06:09:17;;;;;;;3.00;1.00;;;;;;;9.96;69.03;101815.63;5096689;28;20036;-67
2023/10/15 06:11:42;;;;;;;2.20;0.98;;;;;;;10.01;69.33;101828.81;5107312;28;20065;-68
2023/10/15 06:14:08;;;;;;;2.75;1.10;;;;;;;9.98;69.45;101832.91;5096171;28;20028;-67
2023/10/15 06:16:34;;;;;;;3.05;1.20;;;;;;;9.93;69.54;101818.84;5101896;28;20028;-68
2023/10/15 06:19:00;;;;;;;3.38;1.25;;;;;;;9.93;69.28;101829.94;5090371;28;20032;-67
2023/10/15 06:21:25;;;;;;;1.50;1.10;;;;;;;9.93;69.66;101834.66;5099600;28;20123;-67
2023/10/15 06:23:50;;;;;;;3.28;1.48;;;;;;;9.87;69.88;101836.41;5101080;28;20036;-67
2023/10/15 06:26:16;;;;;;;2.72;1.20;;;;;;;9.84;69.95;101842.41;5091902;28;20071;-68
2023/10/15 06:28:41;;;;;;;2.40;1.13;;;;;;;9.91;69.85;101840.44;5095133;28;20364;-68
2023/10/15 06:31:09;;;;;;;3.15;0.98;;;;;;;9.89;69.88;101847.28;5094874;28;20391;-68
2023/10/15 06:33:37;;;;;;;3.35;1.30;;;;;;;9.87;69.74;101849.44;5103823;28;20427;-68
2023/10/15 06:36:02;;;;;;;2.35;1.13;;;;;;;9.88;69.87;101838.09;5094121;28;20032;-69
2023/10/15 06:38:28;;;;;;;2.83;1.38;;;;;;;9.92;70.24;101844.06;5109697;28;20032;-68
2023/10/15 06:40:53;;;;;;;2.78;1.08;;;;;;;9.91;70.65;101842.38;5092894;28;20080;-68
2023/10/15 06:43:18;;;;;;;2.55;1.20;;;;;;;9.86;70.30;101845.78;5092771;28;20039;-69
2023/10/15 06:45:44;;;;;;;3.22;1.50;;;;;;;9.86;70.24;101853.25;5099198;28;20028;-67
2023/10/15 06:48:09;;;;;;;2.40;1.13;;;;;;;9.86;70.78;101851.34;5096645;28;20020;-67
2023/10/15 06:50:34;;;;;;;2.13;1.30;;;;;;;9.88;69.99;101838.09;5097863;28;20032;-68
2023/10/15 06:53:05;;;;;;;4.45;1.40;;;;;;;9.88;69.79;101854.75;5102697;28;20027;-68
2023/10/15 06:55:31;;;;;;;5.75;1.45;;;;;;;9.88;69.75;101827.00;5101539;28;20017;-71
2023/10/15 06:57:56;;;;;;;2.15;1.23;;;;;;;9.87;69.87;101836.41;5100393;28;20066;-69
2023/10/15 07:00:22;;;;;;;3.75;1.20;;;;;;;9.91;69.85;101848.75;5099325;28;20495;-67
2023/10/15 07:02:52;;;;;;;3.58;1.50;;;;;;;9.93;70.50;101862.38;5095413;28;20032;-67
2023/10/15 07:05:18;;;;;;;2.75;1.58;;;;;;;9.95;69.95;101866.66;5103357;28;20032;-69
2023/10/15 07:07:45;;;;;;;4.32;1.40;;;;;;;9.97;69.96;101864.47;5096325;28;20119;-69
2023/10/15 07:10:12;;;;;;;3.22;1.30;;;;;;;10.01;69.74;101871.28;5098890;28;20027;-70
2023/10/15 07:12:37;;;;;;;3.00;1.10;;;;;;;10.06;70.23;101878.91;5094900;28;20027;-68
2023/10/15 07:15:05;;;;;;;3.28;1.20;;;;;;;10.02;70.23;101878.53;5093956;28;20391;-66
2023/10/15 07:17:30;;;;;;;3.22;1.30;;;;;;;10.05;70.45;101877.22;5093703;28;20019;-67
2023/10/15 07:19:56;;;;;;;2.70;1.30;;;;;;;10.08;70.52;101885.09;5095805;28;20038;-65
2023/10/15 07:22:24;;;;;;;4.25;1.45;;;;;;;10.09;70.81;101884.88;5090372;28;20028;-65
2023/10/15 07:24:50;;;;;;;4.53;1.40;;;;;;;10.10;70.95;101869.09;5090241;28;20048;-65
2023/10/15 07:27:15;;;;;;;3.00;1.20;;;;;;;10.07;70.78;101886.19;5091197;28;20497;-65
2023/10/15 07:29:41;;;;;;;2.75;1.30;;;;;;;10.13;70.83;101890.81;5098354;28;20023;-65
2023/10/15 07:32:07;;;;;;;4.13;1.40;;;;;;;10.11;70.84;101898.53;5100426;28;20039;-68
2023/10/15 07:34:33;;;;;;;2.75;1.50;;;;;;;10.12;70.95;101902.16;5105707;28;20110;-65
2023/10/15 07:36:58;;;;;;;3.40;1.55;;;;;;;10.13;71.13;101912.16;5106656;28;20549;-65
2023/10/15 07:39:25;;;;;;;2.83;1.60;;;;;;;10.12;71.59;101921.56;5097894;28;20036;-66
2023/10/15 07:41:51;;;;;;;3.22;1.30;;;;;;;10.15;71.63;101918.34;5100211;28;20028;-66
2023/10/15 07:44:17;;;;;;;2.28;1.48;;;;;;;10.13;71.83;101918.56;5102939;28;20023;-67
2023/10/15 07:46:42;;;;;;;3.17;1.50;;;;;;;10.13;71.30;101907.47;5096861;28;20035;-68
2023/10/15 07:49:09;;;;;;;3.05;1.42;;;;;;;10.14;71.63;101895.31;5104482;28;20034;-66
2023/10/15 07:51:35;;;;;;;4.45;1.42;;;;;;;10.12;71.28;101891.91;5091714;28;20091;-67
2023/10/15 07:54:02;;;;;;;3.47;1.52;;;;;;;10.15;71.77;101898.94;5092870;28;20143;-66
2023/10/15 07:56:27;;;;;;;4.10;1.52;;;;;;;10.20;72.11;101910.19;5092911;28;20026;-68
2023/10/15 07:58:52;;;;;;;5.00;1.55;;;;;;;10.23;72.10;101916.16;5094129;28;20111;-67
2023/10/15 08:01:18;;;;;;;3.15;1.15;;;;;;;10.31;72.26;101920.63;5091221;28;20390;-65
2023/10/15 08:03:43;;;;;;;6.63;1.67;;;;;;;10.34;71.96;101909.06;5093363;28;20042;-66
2023/10/15 08:06:11;;;;;;;2.72;1.40;;;;;;;10.38;71.81;101918.63;5092384;28;20032;-66
2023/10/15 08:08:37;;;;;;;4.65;1.35;;;;;;;10.42;72.13;101921.81;5095894;28;20579;-66
2023/10/15 08:11:02;;;;;;;3.58;1.40;;;;;;;10.41;71.96;101922.88;5093070;28;20035;-68
2023/10/15 08:13:28;;;;;;;3.17;1.50;;;;;;;10.46;71.85;101934.16;5096724;28;20035;-69
2023/10/15 08:15:54;;;;;;;3.40;1.38;;;;;;;10.46;71.34;101940.56;5096839;28;20020;-66
2023/10/15 08:18:20;;;;;;;5.07;1.27;;;;;;;10.45;71.31;101944.41;5100887;28;20024;-65
2023/10/15 08:20:46;;;;;;;3.92;1.38;;;;;;;10.41;71.43;101957.03;5090223;28;20363;-67
2023/10/15 08:23:11;;;;;;;5.07;1.45;;;;;;;10.40;71.24;101965.59;5096389;28;20011;-63
2023/10/15 08:25:39;;;;;;;9.27;1.48;;;;;;;10.46;71.61;101970.25;5097131;28;20063;-64
2023/10/15 08:28:04;;;;;;;6.40;1.77;;;;;;;10.41;71.81;101976.44;5093155;28;20040;-62
2023/10/15 08:30:31;;;;;;;4.63;1.67;;;;;;;10.42;71.79;101980.94;5090709;28;20024;-66
2023/10/15 08:32:57;;;;;;;7.78;1.77;;;;;;;10.41;72.31;101990.31;5103477;28;20027;-67
2023/10/15 08:35:22;;;;;;;2.80;1.35;;;;;;;10.47;72.18;102003.31;5101355;28;20529;-67
2023/10/15 08:37:47;;;;;;;5.68;2.00;;;;;;;10.45;71.62;102015.72;5101683;28;20423;-73
2023/10/15 08:40:17;;;;;;;2.85;1.30;;;;;;;10.42;71.51;102028.13;5094720;28;20027;-65
2023/10/15 08:42:54;;;;;;;3.40;1.40;;;;;;;10.46;71.62;102025.75;5101235;28;20028;-67
2023/10/15 08:45:21;;;;;;;7.93;2.05;;;;;;;10.44;71.85;102025.97;5097727;28;20059;-66
2023/10/15 08:47:50;;;;;;;5.93;1.50;;;;;;;10.39;71.98;102024.94;5097380;28;20027;-66
2023/10/15 08:50:16;;;;;;;3.35;1.55;;;;;;;10.43;71.57;102020.66;5099667;28;20024;-67
2023/10/15 08:52:44;;;;;;;3.25;1.23;;;;;;;10.42;71.52;102038.38;5098332;28;20049;-65
2023/10/15 08:55:10;;;;;;;5.97;1.63;;;;;;;10.41;71.00;102031.97;5099340;28;20032;-67
2023/10/15 08:57:37;;;;;;;3.90;1.60;;;;;;;10.39;69.95;102044.38;5096273;28;20031;-66
2023/10/15 09:00:04;;;;;;;2.83;1.20;;;;;;;10.41;70.10;102061.66;5102844;28;20073;-62
2023/10/15 09:02:30;;;;;;;5.07;1.70;;;;;;;10.34;70.25;102060.84;5102723;28;20036;-65
2023/10/15 09:04:55;;;;;;;3.13;1.20;;;;;;;10.39;70.66;102056.31;5100477;28;20435;-66
2023/10/15 09:07:21;;;;;;;5.57;1.40;;;;;;;10.44;70.94;102063.97;5098291;28;20110;-66
2023/10/15 09:09:49;;;;;;;5.05;1.90;;;;;;;10.43;71.38;102067.84;5096655;28;20027;-65
2023/10/15 09:12:14;;;;;;;4.88;1.85;;;;;;;10.41;71.95;102079.16;5099613;28;20674;-66
2023/10/15 09:14:46;;;;;;;5.18;1.90;;;;;;;10.43;71.52;102074.25;5093688;28;20039;-62
2023/10/15 09:17:14;;;;;;;2.58;1.17;;;;;;;10.45;70.63;102076.78;5100474;28;20020;-67
2023/10/15 09:19:41;;;;;;;2.85;1.30;;;;;;;10.42;71.24;102086.41;5093779;28;20024;-67
2023/10/15 09:22:07;;;;;;;4.68;1.48;;;;;;;10.41;71.54;102086.63;5092949;28;20525;-67
2023/10/15 09:24:33;;;;;;;3.08;1.40;;;;;;;10.38;72.03;102096.28;5094432;28;20036;-67
2023/10/15 09:26:59;;;;;;;5.15;2.63;;;;;;;10.42;72.09;102089.19;5094514;28;20085;-67
2023/10/15 09:29:24;;;;;;;4.13;1.80;;;;;;;10.39;72.10;102078.53;5100909;28;20385;-67
2023/10/15 09:31:56;;;;;;;5.30;1.52;;;;;;;10.42;72.52;102080.03;5099630;28;20429;-67
2023/10/15 09:34:22;;;;;;;2.50;1.08;;;;;;;10.43;72.43;102074.25;5099731;28;20075;-67
2023/10/15 09:36:50;;;;;;;2.95;1.20;;;;;;;10.47;72.32;102086.59;5103624;28;20110;-67
2023/10/15 09:39:15;;;;;;;4.18;1.80;;;;;;;10.47;72.96;102088.53;5107043;28;20064;-67
2023/10/15 09:41:41;;;;;;;2.80;1.60;;;;;;;10.60;73.17;102073.69;5098259;28;20047;-67
2023/10/15 09:44:14;;;;;;;3.63;1.52;;;;;;;10.60;72.85;102084.81;5109579;28;20060;-67
2023/10/15 09:46:41;;;;;;;2.33;0.98;;;;;;;10.62;73.34;102091.00;5102391;28;20371;-67
2023/10/15 09:49:07;;;;;;;3.95;1.23;;;;;;;10.62;72.74;102088.22;5101842;28;20489;-67
2023/10/15 09:51:33;;;;;;;2.08;0.88;;;;;;;10.62;72.00;102091.00;5111569;28;20119;-67
2023/10/15 09:53:59;;;;;;;3.20;1.23;;;;;;;10.56;71.83;102095.50;5096957;28;20020;-67
2023/10/15 09:56:28;;;;;;;2.95;1.08;;;;;;;10.63;71.82;102101.03;5112670;28;20160;-68
2023/10/15 09:58:53;;;;;;;2.90;1.17;;;;;;;10.62;71.81;102102.97;5101920;28;20023;-68
2023/10/15 10:01:26;;;;;;;1.60;0.80;;;;;;;10.61;72.26;102103.16;5095628;28;20024;-67
2023/10/15 10:04:17;;;;;;;3.40;1.20;;;;;;;10.68;72.55;102104.81;5110607;28;20027;-67
2023/10/15 10:06:48;;;;;;;2.90;0.95;;;;;;;10.67;72.71;102105.06;5100298;28;20084;-67
2023/10/15 10:09:36;;;;;;;2.55;1.20;;;;;;;10.73;71.53;102102.25;5105968;28;20035;-67
2023/10/15 10:12:30;;;;;;;2.58;1.20;;;;;;;10.75;71.82;102111.19;5095696;28;20035;-67
2023/10/15 10:15:11;;;;;;;2.70;1.08;;;;;;;10.68;70.60;102115.94;5102789;28;20032;-68
2023/10/15 10:17:37;;;;;;;3.55;1.25;;;;;;;10.74;71.21;102119.75;5109525;28;20034;-66
2023/10/15 10:20:11;;;;;;;1.90;1.00;;;;;;;10.76;70.86;102124.00;5095938;28;20023;-67
2023/10/15 10:22:38;;;;;;;2.88;0.95;;;;;;;10.73;70.66;102129.19;5105354;28;20016;-68
2023/10/15 10:25:07;;;;;;;3.65;1.00;;;;;;;10.73;70.77;102123.63;5095521;28;20047;-67
2023/10/15 10:27:42;;;;;;;3.28;1.20;;;;;;;10.77;70.42;102133.22;5108841;28;20061;-67
2023/10/15 10:30:23;;;;;;;3.20;0.93;;;;;;;10.78;70.75;102137.69;5096075;28;20032;-67
2023/10/15 10:32:52;;;;;;;2.80;1.17;;;;;;;10.74;71.32;102145.59;5109458;28;20031;-67
2023/10/15 10:35:26;;;;;;;3.08;1.08;;;;;;;10.72;70.75;102146.88;5100333;28;20109;-68
2023/10/15 10:38:05;;;;;;;2.63;1.17;;;;;;;10.77;70.83;102147.94;5109586;28;20077;-68
2023/10/15 10:40:49;;;;;;;4.25;1.85;;;;;;;10.77;70.39;102147.94;5099417;28;20023;-67
2023/10/15 10:43:24;;;;;;;2.72;1.30;;;;;;;10.81;70.79;102145.56;5099234;28;20035;-67
2023/10/15 10:45:53;;;;;;;5.60;1.20;;;;;;;10.95;72.01;102138.84;5109686;28;20016;-68
2023/10/15 10:48:21;;;;;;;5.30;1.50;;;;;;;11.11;71.13;102142.16;5100232;28;20066;-68
2023/10/15 10:50:46;;;;;;;3.50;1.23;;;;;;;11.18;71.03;102134.63;5101778;28;20058;-67
2023/10/15 10:53:13;;;;;;;3.95;1.50;;;;;;;11.22;70.30;102135.88;5111205;28;20055;-67
2023/10/15 10:55:39;;;;;;;5.18;1.55;;;;;;;11.25;71.15;102144.59;5095114;28;20415;-67
2023/10/15 10:58:08;;;;;;;2.65;1.25;;;;;;;11.31;70.82;102140.91;5109011;28;20020;-67
2023/10/15 11:00:33;;;;;;;4.97;1.30;;;;;;;11.25;68.73;102138.19;5094305;28;20032;-67
2023/10/15 11:03:01;;;;;;;4.22;1.40;;;;;;;11.27;69.86;102144.38;5101828;28;20537;-67
2023/10/15 11:05:36;;;;;;;3.80;1.13;;;;;;;11.21;69.43;102140.56;5108133;28;20024;-67
2023/10/15 11:08:03;;;;;;;5.03;1.20;;;;;;;11.26;69.01;102149.06;5091384;28;20046;-68
2023/10/15 11:10:32;;;;;;;4.80;1.20;;;;;;;11.24;69.18;102142.91;5095719;28;20044;-67
2023/10/15 11:12:57;;;;;;;4.22;1.20;;;;;;;11.20;69.10;102152.78;5092030;28;20568;-67
2023/10/15 11:15:24;;;;;;;4.40;1.40;;;;;;;11.22;69.50;102152.53;5091156;28;20039;-68
2023/10/15 11:17:56;;;;;;;3.42;1.30;;;;;;;11.23;69.86;102152.31;5093879;28;20020;-67
2023/10/15 11:20:25;;;;;;;7.55;1.35;;;;;;;11.22;69.58;102149.75;5091866;28;20048;-67
2023/10/15 11:22:51;;;;;;;4.72;1.25;;;;;;;11.23;68.69;102146.75;5091088;28;20027;-67
2023/10/15 11:25:18;;;;;;;3.15;1.17;;;;;;;11.31;68.65;102145.63;5091431;28;20048;-67
2023/10/15 11:27:43;;;;;;;4.57;1.08;;;;;;;11.35;68.29;102144.09;5091769;28;20035;-67
2023/10/15 11:30:09;;;;;;;3.85;1.20;;;;;;;11.33;67.95;102156.53;5089757;28;20032;-67
2023/10/15 11:32:35;;;;;;;4.28;1.15;;;;;;;11.27;68.63;102153.56;5109071;28;20035;-67
2023/10/15 11:35:00;;;;;;;3.88;1.25;;;;;;;11.28;67.53;102155.28;5107272;28;20027;-68
2023/10/15 11:37:29;;;;;;;2.83;1.15;;;;;;;11.27;68.95;102164.66;5097346;28;20080;-68
2023/10/15 11:39:55;;;;;;;4.22;1.30;;;;;;;11.28;68.35;102166.41;5095588;28;20039;-68
2023/10/15 11:42:20;;;;;;;2.63;1.05;;;;;;;11.27;67.39;102169.38;5096592;28;20363;-67
2023/10/15 11:44:45;;;;;;;4.25;1.50;;;;;;;11.30;68.27;102166.16;5103141;28;20024;-68